Time;durP1;ratioP1;P1;durP2;ratioP2;P2;SDS_P1;SDS_P2;PMS_P1;PMS_P2;Temp;Humidity;BMP_temperature;BMP_pressure;BME280_temperature;BME280_humidity;BME280_pressure;Samples;Min_cycle;Max_cycle;Signal;HPM_P1;HPM_P2
2022/12/06 00:02:07;;;;;;;45.40;20.40;;;;;;;;;;5037208;28;20474;-74
2022/12/06 00:04:33;;;;;;;47.40;21.23;;;;;;;;;;5032650;28;20043;-74
2022/12/06 00:06:59;;;;;;;48.47;22.42;;;;;;;;;;5032076;28;20032;-74
2022/12/06 00:09:26;;;;;;;46.83;22.33;;;;;;;;;;5032316;28;20052;-74
2022/12/06 00:11:53;;;;;;;49.58;20.90;;;;;;;;;;5032545;28;20025;-73
2022/12/06 00:14:19;;;;;;;42.03;20.70;;;;;;;;;;5032692;28;20029;-74
2022/12/06 00:16:45;;;;;;;47.70;21.33;;;;;;;;;;5031877;28;20034;-74
2022/12/06 00:19:16;;;;;;;41.03;20.58;;;;;;;;;;5032790;28;20150;-73
2022/12/06 00:21:42;;;;;;;47.28;20.95;;;;;;;;;;5030842;28;20033;-74
2022/12/06 00:24:12;;;;;;;44.80;20.60;;;;;;;;;;5032187;28;20033;-74
2022/12/06 00:26:39;;;;;;;43.65;19.20;;;;;;;;;;5030400;28;20068;-73
2022/12/06 00:29:05;;;;;;;44.30;19.60;;;;;;;;;;5032402;28;20026;-74
2022/12/06 00:31:33;;;;;;;43.40;19.70;;;;;;;;;;5030777;28;20025;-73
2022/12/06 00:33:59;;;;;;;41.08;19.73;;;;;;;;;;5031396;28;20022;-74
2022/12/06 00:36:27;;;;;;;41.70;19.88;;;;;;;;;;5031371;28;20474;-74
2022/12/06 00:38:53;;;;;;;42.40;19.65;;;;;;;;;;5031969;28;20033;-74
2022/12/06 00:41:20;;;;;;;43.42;19.85;;;;;;;;;;5031931;28;20036;-74
2022/12/06 00:43:46;;;;;;;37.53;18.90;;;;;;;;;;5031753;28;20406;-73
2022/12/06 00:46:15;;;;;;;39.13;18.95;;;;;;;;;;5030701;28;20068;-73
2022/12/06 00:48:41;;;;;;;40.88;19.17;;;;;;;;;;5031581;28;20474;-73
2022/12/06 00:51:07;;;;;;;33.15;18.02;;;;;;;;;;5031902;28;20034;-74
2022/12/06 00:53:33;;;;;;;35.45;18.10;;;;;;;;;;5031652;28;20021;-73
2022/12/06 00:55:59;;;;;;;35.60;17.42;;;;;;;;;;5031356;28;20027;-73
2022/12/06 00:58:25;;;;;;;34.15;17.60;;;;;;;;;;5031613;28;20134;-74
2022/12/06 01:00:51;;;;;;;34.33;16.63;;;;;;;;;;5029961;28;20040;-75
2022/12/06 01:03:17;;;;;;;31.27;16.73;;;;;;;;;;5029535;28;20033;-74
2022/12/06 01:05:44;;;;;;;31.92;16.17;;;;;;;;;;5030242;28;20083;-73
2022/12/06 01:08:11;;;;;;;38.25;16.27;;;;;;;;;;5031470;28;20022;-73
2022/12/06 01:10:37;;;;;;;29.67;15.23;;;;;;;;;;5031344;28;20025;-73
2022/12/06 01:13:04;;;;;;;26.88;14.65;;;;;;;;;;5030924;28;20025;-73
2022/12/06 01:15:29;;;;;;;27.15;14.13;;;;;;;;;;5030675;28;20375;-73
2022/12/06 01:17:56;;;;;;;29.25;14.43;;;;;;;;;;5031544;28;20087;-75
2022/12/06 01:20:22;;;;;;;24.55;13.38;;;;;;;;;;5031474;28;20055;-73
2022/12/06 01:22:47;;;;;;;25.42;12.95;;;;;;;;;;5031104;28;20501;-74
2022/12/06 01:25:13;;;;;;;21.42;12.07;;;;;;;;;;5031496;28;20387;-75
2022/12/06 01:27:39;;;;;;;23.00;11.60;;;;;;;;;;5034912;28;20076;-74
2022/12/06 01:30:06;;;;;;;18.77;10.30;;;;;;;;;;5048919;28;20026;-74
2022/12/06 01:32:32;;;;;;;17.20;10.00;;;;;;;;;;5045830;28;20080;-74
2022/12/06 01:34:58;;;;;;;16.05;8.93;;;;;;;;;;5047182;28;20029;-74
2022/12/06 01:37:24;;;;;;;13.60;8.20;;;;;;;;;;5046780;28;20029;-73
2022/12/06 01:39:50;;;;;;;13.02;7.70;;;;;;;;;;5052473;28;20044;-74
2022/12/06 01:42:16;;;;;;;14.50;7.07;;;;;;;;;;5054316;28;20066;-74
2022/12/06 01:44:44;;;;;;;15.95;7.72;;;;;;;;;;5055596;28;20024;-74
2022/12/06 01:47:21;;;;;;;13.73;7.68;;;;;;;;;;5056054;28;20041;-74
2022/12/06 01:49:50;;;;;;;14.25;7.28;;;;;;;;;;5048725;28;20026;-74
2022/12/06 01:52:16;;;;;;;10.98;6.70;;;;;;;;;;5046260;28;20044;-73
2022/12/06 01:54:42;;;;;;;11.23;6.95;;;;;;;;;;5048401;28;20024;-73
2022/12/06 01:57:09;;;;;;;11.50;6.03;;;;;;;;;;5048258;28;20018;-73
2022/12/06 01:59:36;;;;;;;7.40;4.97;;;;;;;;;;5053016;28;20059;-73
2022/12/06 02:02:02;;;;;;;7.93;4.93;;;;;;;;;;5052973;28;20030;-74
2022/12/06 02:04:30;;;;;;;8.30;5.00;;;;;;;;;;5052065;28;20018;-73
2022/12/06 02:06:57;;;;;;;8.15;4.75;;;;;;;;;;5045076;28;20185;-73
2022/12/06 02:09:23;;;;;;;6.22;4.05;;;;;;;;;;5030643;28;20402;-74
2022/12/06 02:11:49;;;;;;;6.25;3.90;;;;;;;;;;5030588;28;20026;-73
2022/12/06 02:14:17;;;;;;;4.65;3.47;;;;;;;;;;5031008;28;20535;-73
2022/12/06 02:16:46;;;;;;;3.92;2.88;;;;;;;;;;5030862;28;20466;-74
2022/12/06 02:19:15;;;;;;;5.10;3.17;;;;;;;;;;5031736;28;20021;-73
2022/12/06 02:22:04;;;;;;;4.57;3.30;;;;;;;;;;5031737;28;20037;-75
2022/12/06 02:24:49;;;;;;;4.13;3.30;;;;;;;;;;5026110;28;20040;-75
2022/12/06 02:27:17;;;;;;;6.22;3.67;;;;;;;;;;5031214;28;20104;-73
2022/12/06 02:29:52;;;;;;;5.20;3.40;;;;;;;;;;5031683;28;20032;-73
2022/12/06 02:32:41;;;;;;;5.07;3.92;;;;;;;;;;5032822;28;20282;-74
2022/12/06 02:35:15;;;;;;;4.45;3.60;;;;;;;;;;5035369;28;20049;-73
2022/12/06 02:37:49;;;;;;;5.60;4.05;;;;;;;;;;5035053;28;20493;-74
2022/12/06 02:40:32;;;;;;;5.40;4.00;;;;;;;;;;5034245;28;20030;-74
2022/12/06 02:43:00;;;;;;;6.18;4.45;;;;;;;;;;5035332;28;20108;-74
2022/12/06 02:45:28;;;;;;;7.57;4.65;;;;;;;;;;5034638;28;20026;-75
2022/12/06 02:47:56;;;;;;;7.63;4.65;;;;;;;;;;5034902;28;20022;-73
2022/12/06 02:50:29;;;;;;;8.07;5.15;;;;;;;;;;5035083;28;20025;-74
2022/12/06 02:52:57;;;;;;;8.02;5.35;;;;;;;;;;5033659;28;20040;-75
2022/12/06 02:55:23;;;;;;;9.57;5.20;;;;;;;;;;5034583;28;20036;-75
2022/12/06 02:57:50;;;;;;;7.68;5.20;;;;;;;;;;5034845;28;20100;-74
2022/12/06 03:00:28;;;;;;;7.13;5.47;;;;;;;;;;5034859;28;20026;-74
2022/12/06 03:03:03;;;;;;;8.25;5.30;;;;;;;;;;5034780;28;20061;-75
2022/12/06 03:05:33;;;;;;;8.15;4.90;;;;;;;;;;5034154;28;20029;-74
2022/12/06 03:08:02;;;;;;;8.43;5.15;;;;;;;;;;5034632;28;20025;-74
2022/12/06 03:10:37;;;;;;;7.25;4.70;;;;;;;;;;5035050;28;20489;-74
2022/12/06 03:13:13;;;;;;;7.43;4.90;;;;;;;;;;5035187;28;20382;-74
2022/12/06 03:15:45;;;;;;;7.90;4.97;;;;;;;;;;5033994;28;20033;-74
2022/12/06 03:18:11;;;;;;;7.43;5.00;;;;;;;;;;5034687;28;20037;-74
2022/12/06 03:20:58;;;;;;;7.60;4.72;;;;;;;;;;5034451;28;20032;-75
2022/12/06 03:23:32;;;;;;;8.95;5.10;;;;;;;;;;5034360;28;20041;-72
2022/12/06 03:25:59;;;;;;;8.18;4.90;;;;;;;;;;5033551;28;20123;-73
2022/12/06 03:28:26;;;;;;;7.75;4.82;;;;;;;;;;5034286;28;20112;-73
2022/12/06 03:30:53;;;;;;;7.50;5.38;;;;;;;;;;5034223;28;20530;-75
2022/12/06 03:33:22;;;;;;;7.70;5.22;;;;;;;;;;5034189;28;20159;-75
2022/12/06 03:35:49;;;;;;;7.88;5.35;;;;;;;;;;5033682;28;20475;-74
2022/12/06 03:38:18;;;;;;;6.63;4.80;;;;;;;;;;5033720;28;20036;-76
2022/12/06 03:40:46;;;;;;;7.38;5.22;;;;;;;;;;5034065;28;20116;-74
2022/12/06 03:43:12;;;;;;;9.65;5.50;;;;;;;;;;5034337;28;20029;-75
2022/12/06 03:45:42;;;;;;;6.60;4.78;;;;;;;;;;5045281;28;20056;-75
2022/12/06 03:48:16;;;;;;;9.27;5.22;;;;;;;;;;5057810;28;20029;-76
2022/12/06 03:50:49;;;;;;;8.23;4.57;;;;;;;;;;5057840;28;20013;-77
2022/12/06 03:53:16;;;;;;;9.48;4.80;;;;;;;;;;5058158;28;20067;-75
2022/12/06 03:55:43;;;;;;;9.25;5.00;;;;;;;;;;5056155;28;20029;-75
2022/12/06 03:58:09;;;;;;;7.35;4.80;;;;;;;;;;5056271;28;20018;-76
2022/12/06 04:00:35;;;;;;;8.25;5.03;;;;;;;;;;5047002;28;20036;-76
2022/12/06 04:03:01;;;;;;;9.68;6.05;;;;;;;;;;5034817;28;20018;-76
2022/12/06 04:05:27;;;;;;;8.77;5.28;;;;;;;;;;5038443;28;20504;-75
2022/12/06 04:07:53;;;;;;;7.35;4.72;;;;;;;;;;5036948;28;20502;-74
2022/12/06 04:10:19;;;;;;;10.27;5.03;;;;;;;;;;5033804;28;20470;-73
2022/12/06 04:13:00;;;;;;;7.57;4.97;;;;;;;;;;5032314;28;20026;-74
2022/12/06 04:15:28;;;;;;;7.85;4.80;;;;;;;;;;5033595;28;20025;-74
2022/12/06 04:23:32;;;;;;;12.65;5.68;;;;;;;;;;5035156;28;20138;-74
2022/12/06 04:25:58;;;;;;;8.93;5.70;;;;;;;;;;5033527;28;20033;-74
2022/12/06 04:39:23;;;;;;;7.55;5.43;;;;;;;;;;5033493;28;20044;-73
2022/12/06 04:44:34;;;;;;;9.63;5.97;;;;;;;;;;5033810;28;20040;-74
2022/12/06 04:47:00;;;;;;;9.95;6.35;;;;;;;;;;5041476;28;20192;-74
2022/12/06 04:49:26;;;;;;;10.55;6.05;;;;;;;;;;5034679;28;20029;-74
2022/12/06 04:51:52;;;;;;;8.05;5.50;;;;;;;;;;5033515;28;20021;-75
2022/12/06 04:54:19;;;;;;;8.73;5.53;;;;;;;;;;5035324;28;20033;-73
2022/12/06 04:56:45;;;;;;;11.82;5.75;;;;;;;;;;5030292;28;20048;-75
2022/12/06 04:59:11;;;;;;;8.13;5.18;;;;;;;;;;5032627;28;20462;-74
2022/12/06 05:01:37;;;;;;;9.18;5.30;;;;;;;;;;5032240;28;20076;-74
2022/12/06 05:04:03;;;;;;;11.00;6.15;;;;;;;;;;5032483;28;20033;-73
2022/12/06 05:06:29;;;;;;;9.38;5.82;;;;;;;;;;5031838;28;20113;-75
2022/12/06 05:08:55;;;;;;;8.15;5.18;;;;;;;;;;5032386;28;20036;-74
2022/12/06 05:11:21;;;;;;;11.77;5.80;;;;;;;;;;5032216;28;20053;-73
2022/12/06 05:13:47;;;;;;;11.60;5.88;;;;;;;;;;5032402;28;20057;-72
2022/12/06 05:16:13;;;;;;;7.57;4.97;;;;;;;;;;5053242;22;20072;-76
2022/12/06 05:18:39;;;;;;;11.18;5.25;;;;;;;;;;5024616;28;20038;-76
2022/12/06 05:21:12;;;;;;;13.07;5.38;;;;;;;;;;5026890;28;20030;-76
2022/12/06 05:23:38;;;;;;;11.75;7.40;;;;;;;;;;5026122;28;20018;-76
2022/12/06 05:26:06;;;;;;;9.18;5.20;;;;;;;;;;5029215;28;20045;-77
2022/12/06 05:28:33;;;;;;;6.68;4.82;;;;;;;;;;5036107;28;20022;-79
2022/12/06 05:30:59;;;;;;;6.72;4.95;;;;;;;;;;5036707;28;20235;-78
2022/12/06 05:33:26;;;;;;;6.18;4.40;;;;;;;;;;5028123;28;20498;-76
2022/12/06 05:35:52;;;;;;;7.53;4.85;;;;;;;;;;5020040;28;20030;-77
2022/12/06 05:38:18;;;;;;;6.82;4.40;;;;;;;;;;5022354;28;20045;-74
2022/12/06 05:40:45;;;;;;;8.65;5.68;;;;;;;;;;5023618;28;20029;-75
2022/12/06 05:43:11;;;;;;;21.40;9.30;;;;;;;;;;5023576;28;20026;-75
2022/12/06 05:45:37;;;;;;;6.70;4.45;;;;;;;;;;5023741;28;20056;-75
2022/12/06 05:48:04;;;;;;;6.85;4.82;;;;;;;;;;5021839;28;20090;-75
2022/12/06 05:50:30;;;;;;;5.00;3.83;;;;;;;;;;5024330;28;20022;-75
2022/12/06 05:52:56;;;;;;;5.13;3.85;;;;;;;;;;5024752;28;20069;-76
2022/12/06 05:55:22;;;;;;;4.97;4.03;;;;;;;;;;5024673;28;20109;-75
2022/12/06 05:57:49;;;;;;;8.65;5.13;;;;;;;;;;5022791;28;20036;-75
2022/12/06 06:00:16;;;;;;;9.07;5.47;;;;;;;;;;5025608;28;20052;-76
2022/12/06 06:02:42;;;;;;;6.45;4.43;;;;;;;;;;5024203;28;20033;-77
2022/12/06 06:05:08;;;;;;;5.85;4.05;;;;;;;;;;5023363;28;20033;-77
2022/12/06 06:07:44;;;;;;;5.28;3.92;;;;;;;;;;5024911;28;20025;-76
2022/12/06 06:10:11;;;;;;;5.50;3.53;;;;;;;;;;5010995;28;20045;-77
2022/12/06 06:12:37;;;;;;;6.53;4.25;;;;;;;;;;5010513;28;20065;-76
2022/12/06 06:15:06;;;;;;;9.20;5.82;;;;;;;;;;5027369;28;20030;-76
2022/12/06 06:17:33;;;;;;;6.22;4.38;;;;;;;;;;5029119;28;20034;-74
2022/12/06 06:20:04;;;;;;;6.78;4.43;;;;;;;;;;5028429;28;20040;-75
2022/12/06 06:22:32;;;;;;;5.72;4.10;;;;;;;;;;5029336;28;20060;-74
2022/12/06 06:24:59;;;;;;;8.48;4.85;;;;;;;;;;5027861;28;20034;-74
2022/12/06 06:27:27;;;;;;;7.65;4.72;;;;;;;;;;5028641;28;20290;-75
2022/12/06 06:29:53;;;;;;;8.63;4.65;;;;;;;;;;5026618;28;20109;-76
2022/12/06 06:32:19;;;;;;;6.00;4.80;;;;;;;;;;5027386;28;20112;-77
2022/12/06 06:34:45;;;;;;;9.98;6.25;;;;;;;;;;5031655;28;20061;-77
2022/12/06 06:37:11;;;;;;;8.18;5.82;;;;;;;;;;5014655;28;20022;-77
2022/12/06 06:39:37;;;;;;;12.20;5.70;;;;;;;;;;5035881;28;20025;-76
2022/12/06 06:42:03;;;;;;;9.63;6.38;;;;;;;;;;5034553;28;20029;-76
2022/12/06 06:44:39;;;;;;;9.75;6.65;;;;;;;;;;5035950;28;20376;-75
2022/12/06 06:47:08;;;;;;;11.30;6.95;;;;;;;;;;5038672;28;20020;-78
2022/12/06 06:49:34;;;;;;;9.75;7.45;;;;;;;;;;5019666;28;20098;-77
2022/12/06 06:52:00;;;;;;;11.65;7.30;;;;;;;;;;5035634;28;20029;-76
2022/12/06 06:54:30;;;;;;;14.45;8.32;;;;;;;;;;5033353;28;20045;-75
2022/12/06 06:57:14;;;;;;;11.27;7.95;;;;;;;;;;5030516;28;20064;-74
2022/12/06 06:59:41;;;;;;;12.10;8.48;;;;;;;;;;5025669;28;20061;-75
2022/12/06 07:02:10;;;;;;;13.55;8.40;;;;;;;;;;5032161;28;20030;-77
2022/12/06 07:04:38;;;;;;;12.20;8.30;;;;;;;;;;5033003;28;20022;-76
2022/12/06 07:07:08;;;;;;;14.32;8.52;;;;;;;;;;5034856;28;20022;-74
2022/12/06 07:09:43;;;;;;;15.80;9.43;;;;;;;;;;5028679;28;20026;-76
2022/12/06 07:12:17;;;;;;;16.48;9.65;;;;;;;;;;5032199;28;20030;-76
2022/12/06 07:15:03;;;;;;;17.33;10.18;;;;;;;;;;5031903;28;20085;-75
2022/12/06 07:17:31;;;;;;;15.93;10.10;;;;;;;;;;5029810;28;20084;-76
2022/12/06 07:19:57;;;;;;;15.65;10.40;;;;;;;;;;5027704;28;20046;-76
2022/12/06 07:22:23;;;;;;;14.60;9.63;;;;;;;;;;5013765;28;20042;-76
2022/12/06 07:24:49;;;;;;;15.10;9.60;;;;;;;;;;5032931;28;20064;-75
2022/12/06 07:27:15;;;;;;;16.45;10.02;;;;;;;;;;5034534;28;20022;-78
2022/12/06 07:29:41;;;;;;;17.80;10.00;;;;;;;;;;5037205;28;20046;-76
2022/12/06 07:32:07;;;;;;;13.93;9.07;;;;;;;;;;5037674;28;20017;-76
2022/12/06 07:34:33;;;;;;;18.60;10.18;;;;;;;;;;5037522;28;20048;-76
2022/12/06 07:36:59;;;;;;;29.85;16.63;;;;;;;;;;5034451;28;20030;-77
2022/12/06 07:39:25;;;;;;;18.45;10.75;;;;;;;;;;5028033;28;20387;-75
2022/12/06 07:47:20;;;;;;;14.52;9.30;;;;;;;;;;5026317;28;20041;-75
2022/12/06 07:49:46;;;;;;;15.57;9.63;;;;;;;;;;5025816;28;20025;-76
2022/12/06 07:52:13;;;;;;;13.52;8.90;;;;;;;;;;5026182;28;20033;-78
2022/12/06 07:54:40;;;;;;;24.73;14.15;;;;;;;;;;5024640;28;20053;-76
2022/12/06 07:57:06;;;;;;;14.13;9.80;;;;;;;;;;5026692;28;20029;-75
2022/12/06 07:59:33;;;;;;;16.42;10.35;;;;;;;;;;5025081;28;20022;-74
2022/12/06 08:01:59;;;;;;;15.85;9.68;;;;;;;;;;5025235;28;20041;-75
2022/12/06 08:04:25;;;;;;;15.70;10.02;;;;;;;;;;5025419;28;20111;-77
2022/12/06 08:06:53;;;;;;;15.43;9.85;;;;;;;;;;5024922;28;20058;-75
2022/12/06 08:09:19;;;;;;;18.48;10.50;;;;;;;;;;5025768;28;20026;-75
2022/12/06 08:11:45;;;;;;;15.07;9.63;;;;;;;;;;5028679;28;20026;-77
2022/12/06 08:14:12;;;;;;;15.88;9.90;;;;;;;;;;5025458;28;20026;-77
2022/12/06 08:16:39;;;;;;;15.18;10.18;;;;;;;;;;5028096;28;20084;-76
2022/12/06 08:19:05;;;;;;;16.73;10.95;;;;;;;;;;5026826;28;20066;-75
2022/12/06 08:21:31;;;;;;;20.33;11.93;;;;;;;;;;5026458;28;20032;-76
2022/12/06 08:23:57;;;;;;;16.75;11.10;;;;;;;;;;5024806;28;20449;-77
2022/12/06 08:26:24;;;;;;;17.73;11.55;;;;;;;;;;5024854;28;20026;-76
2022/12/06 08:28:50;;;;;;;22.38;12.43;;;;;;;;;;5027194;28;20030;-79
2022/12/06 08:31:18;;;;;;;21.27;11.77;;;;;;;;;;5024997;28;20109;-77
2022/12/06 08:33:44;;;;;;;20.90;11.93;;;;;;;;;;5023610;28;20045;-79
2022/12/06 08:36:11;;;;;;;20.27;12.98;;;;;;;;;;5024401;28;20033;-78
2022/12/06 08:38:38;;;;;;;26.50;14.45;;;;;;;;;;5023149;28;20034;-76
2022/12/06 08:41:04;;;;;;;25.42;15.55;;;;;;;;;;5026841;28;20478;-76
2022/12/06 08:43:30;;;;;;;25.55;16.08;;;;;;;;;;5023783;28;20025;-77
2022/12/06 08:45:56;;;;;;;37.92;20.58;;;;;;;;;;5022926;28;20058;-77
2022/12/06 08:48:22;;;;;;;35.40;19.60;;;;;;;;;;5024035;28;20640;-75
2022/12/06 08:50:48;;;;;;;27.88;16.23;;;;;;;;;;5024581;28;20234;-76
2022/12/06 08:53:14;;;;;;;31.73;15.65;;;;;;;;;;5024182;28;20054;-77
2022/12/06 08:55:40;;;;;;;28.45;17.25;;;;;;;;;;5026143;28;20026;-75
2022/12/06 08:58:07;;;;;;;29.45;17.13;;;;;;;;;;5022485;28;20034;-76
2022/12/06 09:00:36;;;;;;;32.63;16.10;;;;;;;;;;5023877;28;20064;-77
2022/12/06 09:03:02;;;;;;;30.98;17.77;;;;;;;;;;5027411;28;20045;-75
2022/12/06 09:05:28;;;;;;;31.42;17.88;;;;;;;;;;5023677;28;20033;-75
2022/12/06 09:07:54;;;;;;;30.02;17.73;;;;;;;;;;5023410;28;20025;-75
2022/12/06 09:10:20;;;;;;;32.92;17.33;;;;;;;;;;5024260;28;20479;-76
2022/12/06 09:12:46;;;;;;;37.15;18.85;;;;;;;;;;5023923;28;20022;-75
2022/12/06 09:15:12;;;;;;;26.60;16.25;;;;;;;;;;5024414;28;20040;-76
2022/12/06 09:17:38;;;;;;;26.98;16.15;;;;;;;;;;5025473;28;20156;-76
2022/12/06 09:20:04;;;;;;;29.00;16.58;;;;;;;;;;5026930;28;20495;-76
2022/12/06 09:22:35;;;;;;;29.25;15.93;;;;;;;;;;5027226;28;20069;-79
2022/12/06 09:25:01;;;;;;;26.88;15.07;;;;;;;;;;5025110;28;20022;-74
2022/12/06 09:27:29;;;;;;;29.88;16.13;;;;;;;;;;5029909;28;20030;-74
2022/12/06 09:29:55;;;;;;;27.25;13.82;;;;;;;;;;5030518;28;20022;-75
2022/12/06 09:32:21;;;;;;;25.48;14.55;;;;;;;;;;5031926;28;20040;-76
2022/12/06 09:34:47;;;;;;;26.73;13.48;;;;;;;;;;5035783;28;20052;-76
2022/12/06 09:37:13;;;;;;;27.73;14.20;;;;;;;;;;5033695;28;20041;-76
2022/12/06 09:39:42;;;;;;;20.83;13.50;;;;;;;;;;5023796;28;20402;-77
2022/12/06 09:42:26;;;;;;;27.88;14.40;;;;;;;;;;5025731;28;20025;-76
2022/12/06 09:45:11;;;;;;;23.08;14.55;;;;;;;;;;5030148;28;20037;-75
2022/12/06 09:47:40;;;;;;;25.77;14.43;;;;;;;;;;5027598;28;20049;-74
2022/12/06 09:50:23;;;;;;;40.10;22.55;;;;;;;;;;5031577;28;20471;-76
2022/12/06 09:53:04;;;;;;;26.67;13.75;;;;;;;;;;5035011;28;20034;-76
2022/12/06 09:55:36;;;;;;;23.42;13.68;;;;;;;;;;5035234;28;20036;-77
2022/12/06 09:58:08;;;;;;;25.15;14.15;;;;;;;;;;5034029;28;20042;-77
2022/12/06 10:00:40;;;;;;;27.75;14.95;;;;;;;;;;5033301;28;20026;-77
2022/12/06 10:03:12;;;;;;;24.15;14.65;;;;;;;;;;5032591;28;20018;-77
2022/12/06 10:05:59;;;;;;;26.02;15.32;;;;;;;;;;5033104;28;20030;-76
2022/12/06 10:08:38;;;;;;;30.88;16.00;;;;;;;;;;5033824;28;20022;-76
2022/12/06 10:11:22;;;;;;;27.52;14.88;;;;;;;;;;5029207;28;20317;-74
2022/12/06 10:14:03;;;;;;;28.70;15.05;;;;;;;;;;5027277;28;20471;-75
2022/12/06 10:16:29;;;;;;;28.17;16.70;;;;;;;;;;5024324;28;20483;-75
2022/12/06 10:19:07;;;;;;;26.73;15.98;;;;;;;;;;5025781;28;20041;-74
2022/12/06 10:21:50;;;;;;;27.75;16.20;;;;;;;;;;5029869;28;20046;-77
2022/12/06 10:24:28;;;;;;;30.08;15.70;;;;;;;;;;5034806;28;20030;-76
2022/12/06 10:26:55;;;;;;;31.27;16.20;;;;;;;;;;5031212;28;20037;-76
2022/12/06 10:29:39;;;;;;;29.83;16.23;;;;;;;;;;5032937;28;20023;-76
2022/12/06 10:32:24;;;;;;;25.15;15.25;;;;;;;;;;5028651;28;20112;-76
2022/12/06 10:34:54;;;;;;;29.70;16.33;;;;;;;;;;5035117;28;20010;-78
2022/12/06 10:37:20;;;;;;;30.80;16.15;;;;;;;;;;5035409;28;20064;-77
2022/12/06 10:40:15;;;;;;;29.10;16.63;;;;;;;;;;5031867;28;20491;-75
2022/12/06 10:42:50;;;;;;;25.45;15.25;;;;;;;;;;5012563;28;20041;-76
2022/12/06 10:48:32;;;;;;;28.00;16.23;;;;;;;;;;5028891;28;20122;-75
2022/12/06 10:51:01;;;;;;;37.78;18.33;;;;;;;;;;5026485;28;20033;-75
2022/12/06 10:53:29;;;;;;;29.27;16.23;;;;;;;;;;5028052;28;20029;-76
2022/12/06 10:56:07;;;;;;;114.07;61.92;;;;;;;;;;5031760;28;20042;-77
2022/12/06 10:58:45;;;;;;;35.28;20.85;;;;;;;;;;5037402;28;20105;-76
2022/12/06 11:01:15;;;;;;;26.73;14.63;;;;;;;;;;5034078;28;20057;-75
2022/12/06 11:03:55;;;;;;;25.88;14.90;;;;;;;;;;5034010;28;20030;-76
2022/12/06 11:06:41;;;;;;;25.45;14.80;;;;;;;;;;5033729;28;20030;-77
2022/12/06 11:09:25;;;;;;;26.85;13.80;;;;;;;;;;5033735;28;20018;-76
2022/12/06 11:11:54;;;;;;;26.50;15.73;;;;;;;;;;5034796;28;20052;-79
2022/12/06 11:14:25;;;;;;;31.33;16.20;;;;;;;;;;5034110;28;20030;-76
2022/12/06 11:16:54;;;;;;;31.27;16.60;;;;;;;;;;5025029;28;20115;-77
2022/12/06 11:19:49;;;;;;;33.10;17.88;;;;;;;;;;5016618;28;20521;-76
2022/12/06 11:22:15;;;;;;;;;;;;;;;;;;5025935;28;20033;-77
2022/12/06 11:24:50;;;;;;;31.92;17.38;;;;;;;;;;5034448;28;20021;-78
2022/12/06 11:27:16;;;;;;;;;;;;;;;;;;5033696;28;20026;-78
2022/12/06 11:29:43;;;;;;;36.13;19.05;;;;;;;;;;5033148;28;20359;-78
2022/12/06 11:32:11;;;;;;;37.45;19.17;;;;;;;;;;5036052;28;20052;-79
2022/12/06 11:34:53;;;;;;;33.70;18.35;;;;;;;;;;5037165;28;20033;-78
2022/12/06 11:37:21;;;;;;;36.30;18.70;;;;;;;;;;5029828;28;20089;-77
2022/12/06 11:39:49;;;;;;;34.58;17.13;;;;;;;;;;5023327;28;20073;-76
2022/12/06 11:42:18;;;;;;;34.70;17.20;;;;;;;;;;5028005;28;20029;-78
2022/12/06 11:44:47;;;;;;;29.90;16.77;;;;;;;;;;5032943;28;20045;-75
2022/12/06 11:47:18;;;;;;;35.78;18.25;;;;;;;;;;5031620;28;20030;-75
2022/12/06 11:49:44;;;;;;;34.92;17.65;;;;;;;;;;5029405;28;20022;-75
2022/12/06 11:52:13;;;;;;;33.97;18.50;;;;;;;;;;5018574;28;20049;-77
2022/12/06 11:54:43;;;;;;;25.85;14.38;;;;;;;;;;5017284;28;20490;-76
2022/12/06 11:57:22;;;;;;;25.25;14.57;;;;;;;;;;5014875;28;20034;-75
2022/12/06 12:00:07;;;;;;;23.25;12.93;;;;;;;;;;5015902;28;20034;-75
2022/12/06 12:02:33;;;;;;;25.38;13.63;;;;;;;;;;5016352;28;20034;-76
2022/12/06 12:05:21;;;;;;;25.30;12.77;;;;;;;;;;5018748;28;20025;-75
2022/12/06 12:07:59;;;;;;;20.00;11.25;;;;;;;;;;5019125;28;20064;-75
2022/12/06 12:10:33;;;;;;;21.05;11.88;;;;;;;;;;5021559;28;20026;-76
2022/12/06 12:15:53;;;;;;;16.27;9.43;;;;;;;;;;5019368;28;20303;-76
2022/12/06 12:18:21;;;;;;;17.77;9.65;;;;;;;;;;5017158;28;20069;-77
2022/12/06 12:20:48;;;;;;;16.55;9.80;;;;;;;;;;5016205;28;20535;-77
2022/12/06 12:23:14;;;;;;;15.85;9.45;;;;;;;;;;5016156;28;20370;-75
2022/12/06 12:25:43;;;;;;;16.50;9.40;;;;;;;;;;5017475;28;20036;-76
2022/12/06 12:28:38;;;;;;;18.92;10.32;;;;;;;;;;5016030;28;20026;-78
2022/12/06 12:31:18;;;;;;;14.65;9.10;;;;;;;;;;5016099;28;20030;-76
2022/12/06 12:33:44;;;;;;;11.75;7.85;;;;;;;;;;5018282;28;20119;-75
2022/12/06 12:36:15;;;;;;;14.70;8.80;;;;;;;;;;5014637;28;20483;-75
2022/12/06 12:38:59;;;;;;;18.88;10.70;;;;;;;;;;5015186;28;20518;-75
2022/12/06 12:41:44;;;;;;;13.77;7.32;;;;;;;;;;5015751;28;20030;-77
2022/12/06 12:44:15;;;;;;;16.90;7.70;;;;;;;;;;5019790;28;20129;-76
2022/12/06 12:46:43;;;;;;;13.23;8.40;;;;;;;;;;5019692;28;20037;-76
2022/12/06 12:49:28;;;;;;;14.35;8.00;;;;;;;;;;5021336;28;20061;-76
2022/12/06 12:51:54;;;;;;;17.48;8.10;;;;;;;;;;5017560;28;20026;-75
2022/12/06 12:54:31;;;;;;;18.52;7.70;;;;;;;;;;5016659;28;20374;-75
2022/12/06 12:56:59;;;;;;;14.63;7.80;;;;;;;;;;5017883;28;20033;-76
2022/12/06 12:59:26;;;;;;;15.20;8.00;;;;;;;;;;5019796;28;20054;-75
2022/12/06 13:02:04;;;;;;;13.38;7.72;;;;;;;;;;5020695;28;20034;-76
2022/12/06 13:04:34;;;;;;;13.80;7.15;;;;;;;;;;5026798;28;20037;-76
2022/12/06 13:07:05;;;;;;;14.50;7.57;;;;;;;;;;5028104;28;20065;-75
2022/12/06 13:09:45;;;;;;;15.75;7.43;;;;;;;;;;5028019;28;20026;-75
2022/12/06 13:12:23;;;;;;;15.98;8.02;;;;;;;;;;5029243;28;20032;-75
2022/12/06 13:14:55;;;;;;;18.98;9.93;;;;;;;;;;5025646;28;20062;-75
2022/12/06 13:17:23;;;;;;;26.40;13.18;;;;;;;;;;5023439;28;20026;-75
2022/12/06 13:19:49;;;;;;;17.77;9.80;;;;;;;;;;5028265;28;20025;-74
2022/12/06 13:22:19;;;;;;;17.73;9.35;;;;;;;;;;5028512;28;20032;-76
2022/12/06 13:24:46;;;;;;;16.73;8.77;;;;;;;;;;5026666;28;20399;-76
2022/12/06 13:27:14;;;;;;;15.63;9.15;;;;;;;;;;5027328;28;20033;-75
2022/12/06 13:29:41;;;;;;;20.70;9.23;;;;;;;;;;5022656;28;20022;-76
2022/12/06 13:32:28;;;;;;;16.30;8.90;;;;;;;;;;5026305;28;20478;-77
2022/12/06 13:34:58;;;;;;;13.95;8.23;;;;;;;;;;5019959;28;20030;-77
2022/12/06 13:37:42;;;;;;;22.73;8.88;;;;;;;;;;5020600;28;20057;-77
2022/12/06 13:40:28;;;;;;;16.20;8.90;;;;;;;;;;5025669;28;20128;-77
2022/12/06 13:42:54;;;;;;;14.63;9.23;;;;;;;;;;5025111;28;20053;-77
2022/12/06 13:45:44;;;;;;;13.65;8.32;;;;;;;;;;5019114;28;20026;-76
2022/12/06 13:48:25;;;;;;;16.10;7.60;;;;;;;;;;5011808;28;20042;-77
2022/12/06 13:50:53;;;;;;;25.45;12.30;;;;;;;;;;5015228;28;20026;-75
2022/12/06 13:53:19;;;;;;;19.73;10.38;;;;;;;;;;5013914;28;20033;-76
2022/12/06 13:55:53;;;;;;;15.38;8.90;;;;;;;;;;5013643;28;20030;-77
2022/12/06 13:58:19;;;;;;;17.77;9.27;;;;;;;;;;5016803;28;20033;-77
2022/12/06 14:00:49;;;;;;;18.88;9.20;;;;;;;;;;5022757;28;20029;-77
2022/12/06 14:03:15;;;;;;;17.67;10.15;;;;;;;;;;5022223;28;20390;-76
2022/12/06 14:05:59;;;;;;;17.98;9.27;;;;;;;;;;5023728;28;20092;-76
2022/12/06 14:08:35;;;;;;;13.95;8.95;;;;;;;;;;5021106;28;20026;-77
2022/12/06 14:11:05;;;;;;;15.60;9.05;;;;;;;;;;5018006;28;20021;-77
2022/12/06 14:13:31;;;;;;;17.23;9.13;;;;;;;;;;5023541;28;20045;-77
2022/12/06 14:15:57;;;;;;;17.60;8.75;;;;;;;;;;5025477;28;20034;-76
2022/12/06 14:18:27;;;;;;;14.43;8.43;;;;;;;;;;5012940;28;20041;-77
2022/12/06 14:20:54;;;;;;;13.52;8.60;;;;;;;;;;5031842;28;20022;-76
2022/12/06 14:23:25;;;;;;;12.60;8.63;;;;;;;;;;5033598;28;20123;-76
2022/12/06 14:25:51;;;;;;;87.22;46.30;;;;;;;;;;5031292;28;20412;-76
2022/12/06 14:28:20;;;;;;;33.65;18.67;;;;;;;;;;5032311;28;20029;-76
2022/12/06 14:30:46;;;;;;;16.10;9.90;;;;;;;;;;5028310;28;20106;-77
2022/12/06 14:33:20;;;;;;;15.35;8.52;;;;;;;;;;5026715;28;20542;-77
2022/12/06 14:35:53;;;;;;;64.68;28.33;;;;;;;;;;5023795;28;20041;-77
2022/12/06 14:38:19;;;;;;;42.00;20.80;;;;;;;;;;5025947;28;20037;-77
2022/12/06 14:43:31;;;;;;;18.27;10.02;;;;;;;;;;5023757;28;20375;-76
2022/12/06 14:45:58;;;;;;;22.55;10.90;;;;;;;;;;5022267;28;20038;-77
2022/12/06 14:48:24;;;;;;;18.73;9.85;;;;;;;;;;5024150;28;20134;-77
2022/12/06 14:50:56;;;;;;;15.73;8.82;;;;;;;;;;5025389;28;20505;-77
2022/12/06 14:53:29;;;;;;;16.25;8.60;;;;;;;;;;5023362;28;20022;-76
2022/12/06 14:56:04;;;;;;;16.45;8.25;;;;;;;;;;5025776;28;20030;-76
2022/12/06 14:58:34;;;;;;;28.38;15.23;;;;;;;;;;5025560;28;20029;-76
2022/12/06 15:00:59;;;;;;;49.92;26.85;;;;;;;;;;5020575;28;20470;-75
2022/12/06 15:03:32;;;;;;;21.15;11.80;;;;;;;;;;5023895;28;20037;-78
2022/12/06 15:06:13;;;;;;;14.15;8.27;;;;;;;;;;5023248;28;20340;-73
2022/12/06 15:08:42;;;;;;;11.65;7.70;;;;;;;;;;5025268;28;20502;-77
2022/12/06 15:11:11;;;;;;;12.82;7.90;;;;;;;;;;5021409;28;20106;-76
2022/12/06 15:13:40;;;;;;;12.43;7.18;;;;;;;;;;5017196;28;20026;-77
2022/12/06 15:16:06;;;;;;;17.67;9.13;;;;;;;;;;5018032;28;20077;-76
2022/12/06 15:18:34;;;;;;;15.27;9.05;;;;;;;;;;5015287;28;20042;-76